createdAt,value
2019-03-23T00:00:51.291Z,20.20
2019-03-23T00:03:20.593Z,19.97
2019-03-23T00:05:49.891Z,20.83
2019-03-23T00:08:19.191Z,19.00
2019-03-23T00:10:48.487Z,20.90
2019-03-23T00:13:18.739Z,21.40
2019-03-23T00:15:48.031Z,19.97
2019-03-23T00:18:17.336Z,24.43
2019-03-23T00:20:46.641Z,21.17
2019-03-23T00:23:16.040Z,27.03
2019-03-23T00:25:45.355Z,19.30
2019-03-23T00:28:14.651Z,20.90
2019-03-23T00:30:43.952Z,19.97
2019-03-23T00:33:14.196Z,21.50
2019-03-23T00:35:43.497Z,18.40
2019-03-23T00:38:12.792Z,27.83
2019-03-23T00:40:42.117Z,22.40
2019-03-23T00:43:11.428Z,20.03
2019-03-23T00:45:41.023Z,20.73
2019-03-23T00:48:10.335Z,19.60
2019-03-23T00:50:39.640Z,27.23
2019-03-23T00:53:08.944Z,17.80
2019-03-23T00:55:38.267Z,19.90
2019-03-23T00:58:07.572Z,23.87
2019-03-23T01:00:36.889Z,24.07
2019-03-23T01:03:06.187Z,21.87
2019-03-23T01:05:35.492Z,22.80
2019-03-23T01:08:04.796Z,21.70
2019-03-23T01:10:34.106Z,19.33
2019-03-23T01:13:03.992Z,19.47
2019-03-23T01:15:33.284Z,24.10
2019-03-23T01:18:02.591Z,20.17
2019-03-23T01:20:31.893Z,23.17
2019-03-23T01:23:01.199Z,19.57
2019-03-23T01:25:30.502Z,21.07
2019-03-23T01:27:59.795Z,19.23
2019-03-23T01:30:30.136Z,22.67
2019-03-23T01:32:59.440Z,21.37
2019-03-23T01:35:28.735Z,21.17
2019-03-23T01:37:58.057Z,21.53
2019-03-23T01:40:27.427Z,18.53
2019-03-23T01:42:56.732Z,23.87
2019-03-23T01:45:26.052Z,23.17
2019-03-23T01:47:56.500Z,19.53
2019-03-23T01:50:25.812Z,17.40
2019-03-23T01:52:55.116Z,23.20
2019-03-23T01:55:24.412Z,20.93
2019-03-23T01:57:53.731Z,18.37
2019-03-23T02:00:23.033Z,17.30
2019-03-23T02:02:52.335Z,24.00
2019-03-23T02:05:21.632Z,22.47
2019-03-23T02:07:50.932Z,22.00
2019-03-23T02:10:21.261Z,27.80
2019-03-23T02:12:50.568Z,21.43
2019-03-23T02:15:20.444Z,22.17
2019-03-23T02:17:49.739Z,24.27
2019-03-23T02:20:19.045Z,20.93
2019-03-23T02:22:48.365Z,19.20
2019-03-23T02:25:17.659Z,21.33
2019-03-23T02:27:46.960Z,27.33
2019-03-23T02:30:16.536Z,23.53
2019-03-23T02:32:45.905Z,20.70
2019-03-23T02:35:16.009Z,21.27
2019-03-23T02:37:45.306Z,19.17
2019-03-23T02:40:14.606Z,20.53
2019-03-23T02:42:43.920Z,19.87
2019-03-23T02:45:14.273Z,22.63
2019-03-23T02:47:43.666Z,20.43
2019-03-23T02:50:15.337Z,19.10
2019-03-23T02:52:44.713Z,20.00
2019-03-23T02:55:14.053Z,18.87
2019-03-23T02:57:43.355Z,17.07
2019-03-23T03:00:14.399Z,24.03
2019-03-23T03:02:43.711Z,18.23
2019-03-23T03:05:13.309Z,18.57
2019-03-23T03:07:43.808Z,17.43
2019-03-23T03:10:33.435Z,19.37
2019-03-23T03:13:02.784Z,18.97
2019-03-23T03:15:32.081Z,20.70
2019-03-23T03:18:01.389Z,24.53
2019-03-23T03:20:30.692Z,19.90
2019-03-23T03:23:00.012Z,21.50
2019-03-23T03:25:30.266Z,18.70
2019-03-23T03:27:59.552Z,16.57
2019-03-23T03:30:28.852Z,19.60
2019-03-23T03:32:58.172Z,19.70
2019-03-23T03:35:27.532Z,17.20
2019-03-23T03:37:57.468Z,20.33
2019-03-23T03:40:26.820Z,18.83
2019-03-23T03:42:57.741Z,21.27
2019-03-23T03:45:28.580Z,19.33
2019-03-23T03:47:58.059Z,19.77
2019-03-23T03:50:28.124Z,21.40
2019-03-23T03:52:57.425Z,22.77
2019-03-23T03:55:26.758Z,26.87
2019-03-23T03:57:56.211Z,28.53
2019-03-23T04:00:25.513Z,26.53
2019-03-23T04:02:54.816Z,22.53
2019-03-23T04:05:24.120Z,22.60
2019-03-23T04:07:53.428Z,22.67
2019-03-23T04:10:23.700Z,18.60
2019-03-23T04:12:53.080Z,16.23
2019-03-23T04:15:22.376Z,22.27
2019-03-23T04:17:51.704Z,19.47
2019-03-23T04:20:21.004Z,21.77
2019-03-23T04:22:50.318Z,17.03
2019-03-23T04:25:19.606Z,17.27
2019-03-23T04:27:48.906Z,17.33
2019-03-23T04:30:18.218Z,17.30
2019-03-23T04:32:47.521Z,23.13
2019-03-23T04:35:16.812Z,17.43
2019-03-23T04:37:46.111Z,14.80
2019-03-23T04:40:15.648Z,18.77
2019-03-23T04:42:44.968Z,19.13
2019-03-23T04:45:14.703Z,15.93
2019-03-23T04:47:44.012Z,17.20
2019-03-23T04:50:13.607Z,19.23
2019-03-23T04:52:43.055Z,16.57
2019-03-23T04:55:13.099Z,15.53
2019-03-23T04:57:42.413Z,18.13
2019-03-23T05:00:14.626Z,14.97
2019-03-23T05:02:43.928Z,16.47
2019-03-23T05:05:13.302Z,14.97
2019-03-23T05:07:42.591Z,15.53
2019-03-23T05:10:12.232Z,17.83
2019-03-23T05:12:42.000Z,20.30
2019-03-23T05:15:11.477Z,17.53
2019-03-23T05:17:40.839Z,18.93
2019-03-23T05:20:11.572Z,16.17
2019-03-23T05:22:40.915Z,14.33
2019-03-23T05:25:19.244Z,18.43
2019-03-23T05:27:48.540Z,17.77
2019-03-23T05:30:17.840Z,20.57
2019-03-23T05:32:47.140Z,17.43
2019-03-23T05:35:16.465Z,19.53
2019-03-23T05:37:45.783Z,18.70
2019-03-23T05:40:15.081Z,15.50
2019-03-23T05:42:44.381Z,16.80
2019-03-23T05:45:13.755Z,16.63
2019-03-23T05:47:43.048Z,17.00
2019-03-23T05:50:13.537Z,16.80
2019-03-23T05:52:42.899Z,16.80
2019-03-23T05:55:13.703Z,17.10
2019-03-23T05:57:43.003Z,18.27
2019-03-23T06:00:14.126Z,14.97
2019-03-23T06:02:43.420Z,17.50
2019-03-23T06:05:12.720Z,14.10
2019-03-23T06:07:43.167Z,21.27
2019-03-23T06:10:12.640Z,18.57
2019-03-23T06:12:41.936Z,19.10
2019-03-23T06:15:11.476Z,19.23
2019-03-23T06:17:40.772Z,16.57
2019-03-23T06:20:10.461Z,16.27
2019-03-23T06:22:39.752Z,18.03
2019-03-23T06:25:09.521Z,21.63
2019-03-23T06:27:38.819Z,17.70
2019-03-23T06:30:10.466Z,20.17
2019-03-23T06:32:39.767Z,21.20
2019-03-23T06:35:09.134Z,20.63
2019-03-23T06:37:38.452Z,19.10
2019-03-23T06:40:09.690Z,22.00
2019-03-23T06:42:39.913Z,52.47
2019-03-23T06:45:11.056Z,59.67
2019-03-23T06:47:40.355Z,62.57
2019-03-23T06:50:11.200Z,101.87
2019-03-23T06:52:40.505Z,106.87
2019-03-23T06:55:10.169Z,120.33
2019-03-23T06:57:39.805Z,108.90
2019-03-23T07:00:15.685Z,114.07
2019-03-23T07:02:44.983Z,105.87
2019-03-23T07:05:14.299Z,119.60
2019-03-23T07:07:43.609Z,122.03
2019-03-23T07:10:13.953Z,107.40
2019-03-23T07:12:43.341Z,123.77
2019-03-23T07:15:19.846Z,118.63
2019-03-23T07:17:44.591Z,115.07
2019-03-23T07:20:14.739Z,129.30
2019-03-23T07:22:44.838Z,135.23
2019-03-23T07:25:14.340Z,118.33
2019-03-23T07:27:43.651Z,115.40
2019-03-23T07:30:15.576Z,114.43
2019-03-23T07:32:44.874Z,115.53
2019-03-23T07:35:15.419Z,113.83
2019-03-23T07:37:44.729Z,110.30
2019-03-23T07:40:14.472Z,105.63
2019-03-23T07:42:43.780Z,123.47
2019-03-23T07:45:16.693Z,112.77
2019-03-23T07:47:46.020Z,106.50
2019-03-23T07:50:15.502Z,99.17
2019-03-23T07:52:45.077Z,111.63
2019-03-23T07:55:15.515Z,104.20
2019-03-23T07:57:47.863Z,107.03
2019-03-23T08:00:21.558Z,119.17
2019-03-23T08:02:50.946Z,107.57
2019-03-23T08:05:20.423Z,115.57
2019-03-23T08:07:49.736Z,115.30
2019-03-23T08:10:33.124Z,123.53
2019-03-23T08:13:03.545Z,127.87
2019-03-23T08:15:32.840Z,126.53
2019-03-23T08:18:02.140Z,134.97
2019-03-23T08:20:31.448Z,120.67
2019-03-23T08:23:00.754Z,122.43
2019-03-23T08:25:30.136Z,142.37
2019-03-23T08:27:59.441Z,133.10
2019-03-23T08:30:28.767Z,134.63
2019-03-23T08:32:58.136Z,119.57
2019-03-23T08:35:28.585Z,133.97
2019-03-23T08:37:57.953Z,130.50
2019-03-23T08:40:27.251Z,132.90
2019-03-23T08:42:56.632Z,135.63
2019-03-23T08:45:26.035Z,133.87
2019-03-23T08:47:55.339Z,145.20
2019-03-23T08:50:25.248Z,151.30
2019-03-23T08:52:54.547Z,138.90
2019-03-23T08:55:23.856Z,160.83
2019-03-23T08:57:53.176Z,169.13
2019-03-23T09:00:22.859Z,143.93
2019-03-23T09:02:52.160Z,157.70
2019-03-23T09:05:21.458Z,142.60
2019-03-23T09:07:52.628Z,138.03
2019-03-23T09:10:22.856Z,145.13
2019-03-23T09:12:52.156Z,162.23
2019-03-23T09:15:21.467Z,155.43
2019-03-23T09:17:50.776Z,158.17
2019-03-23T09:20:20.089Z,157.93
2019-03-23T09:22:49.405Z,145.87
2019-03-23T09:25:18.708Z,137.93
2019-03-23T09:27:48.498Z,145.83
2019-03-23T09:30:18.132Z,122.90
2019-03-23T09:32:47.440Z,123.20
2019-03-23T09:35:16.743Z,129.53
2019-03-23T09:37:46.052Z,120.10
2019-03-23T09:40:15.376Z,108.93
2019-03-23T09:42:44.676Z,127.37
2019-03-23T09:45:14.467Z,124.83
2019-03-23T09:47:43.849Z,135.57
2019-03-23T09:50:13.216Z,130.37
2019-03-23T09:52:42.531Z,114.97
2019-03-23T09:55:11.916Z,138.87
2019-03-23T09:57:41.396Z,126.70
2019-03-23T10:00:12.347Z,130.07
2019-03-23T10:02:44.069Z,125.00
2019-03-23T10:05:13.373Z,126.70
2019-03-23T10:07:42.688Z,134.53
2019-03-23T10:10:21.375Z,138.03
2019-03-23T10:12:43.232Z,119.53
2019-03-23T10:15:12.629Z,135.70
2019-03-23T10:17:41.932Z,131.90
2019-03-23T10:20:11.420Z,125.40
2019-03-23T10:22:40.724Z,116.87
2019-03-23T10:25:10.160Z,130.97
2019-03-23T10:27:39.472Z,130.63
2019-03-23T10:30:10.990Z,131.40
2019-03-23T10:32:40.324Z,129.43
2019-03-23T10:35:10.180Z,119.13
2019-03-23T10:37:39.488Z,125.03
2019-03-23T10:40:11.450Z,135.33
2019-03-23T10:42:43.377Z,143.07
2019-03-23T10:45:13.361Z,146.60
2019-03-23T10:47:42.761Z,136.83
2019-03-23T10:50:13.787Z,131.00
2019-03-23T10:52:43.557Z,134.00
2019-03-23T10:55:12.864Z,147.10
2019-03-23T10:57:42.167Z,150.73
2019-03-23T11:00:13.495Z,138.70
2019-03-23T11:02:42.867Z,144.20
2019-03-23T11:05:12.889Z,141.30
2019-03-23T11:07:42.214Z,115.53
2019-03-23T11:10:13.925Z,130.07
2019-03-23T11:12:44.144Z,139.93
2019-03-23T11:15:13.445Z,115.93
2019-03-23T11:17:42.747Z,137.27
2019-03-23T11:20:13.203Z,136.10
2019-03-23T11:22:42.512Z,136.83
2019-03-23T11:25:12.372Z,134.50
2019-03-23T11:27:42.647Z,139.97
2019-03-23T11:30:14.148Z,131.23
2019-03-23T11:32:43.460Z,121.63
2019-03-23T11:35:13.303Z,133.73
2019-03-23T11:37:43.043Z,133.70
2019-03-23T11:40:12.756Z,135.40
2019-03-23T11:42:49.982Z,151.67
2019-03-23T11:45:13.824Z,131.00
2019-03-23T11:47:43.141Z,137.83
2019-03-23T11:50:13.743Z,143.63
2019-03-23T11:52:43.645Z,136.57
2019-03-23T11:55:12.953Z,148.73
2019-03-23T11:57:42.256Z,139.20
2019-03-23T12:00:16.096Z,147.43
2019-03-23T12:02:45.410Z,149.97
2019-03-23T12:05:18.275Z,131.83
2019-03-23T12:07:47.580Z,128.47
2019-03-23T12:10:16.891Z,126.33
2019-03-23T12:12:46.200Z,136.83
2019-03-23T12:15:15.508Z,144.50
2019-03-23T12:17:44.845Z,138.03
2019-03-23T12:20:14.467Z,134.17
2019-03-23T12:22:43.771Z,132.83
2019-03-23T12:25:13.420Z,124.47
2019-03-23T12:27:42.715Z,128.50
2019-03-23T12:30:15.943Z,143.27
2019-03-23T12:32:45.424Z,128.63
2019-03-23T12:35:14.737Z,124.47
2019-03-23T12:37:44.045Z,135.13
2019-03-23T12:40:13.798Z,120.60
2019-03-23T12:42:43.120Z,136.93
2019-03-23T12:45:12.968Z,135.17
2019-03-23T12:47:42.280Z,127.70
2019-03-23T12:50:12.156Z,132.97
2019-03-23T12:52:41.525Z,128.70
2019-03-23T12:55:11.020Z,128.50
2019-03-23T12:57:40.391Z,135.07
2019-03-23T13:00:14.850Z,121.87
2019-03-23T13:02:44.162Z,125.87
2019-03-23T13:05:13.740Z,118.83
2019-03-23T13:07:43.344Z,104.07
2019-03-23T13:10:13.791Z,118.80
2019-03-23T13:12:43.229Z,107.23
2019-03-23T13:15:14.172Z,109.37
2019-03-23T13:17:43.493Z,94.30
2019-03-23T13:20:13.206Z,96.00
2019-03-23T13:22:42.586Z,112.97
2019-03-23T13:25:11.968Z,94.67
2019-03-23T13:27:42.228Z,96.07
2019-03-23T13:30:14.105Z,88.07
2019-03-23T13:32:43.451Z,100.47
2019-03-23T13:35:12.808Z,100.20
2019-03-23T13:38:01.462Z,99.60
2019-03-23T13:40:31.722Z,98.33
2019-03-23T13:43:01.027Z,106.47
2019-03-23T13:45:30.339Z,105.77
2019-03-23T13:47:59.643Z,106.23
2019-03-23T13:50:30.092Z,101.90
2019-03-23T13:52:59.405Z,104.50
2019-03-23T13:55:31.775Z,89.40
2019-03-23T13:58:12.763Z,99.43
2019-03-23T14:00:42.812Z,94.47
2019-03-23T14:03:13.085Z,94.97
2019-03-23T14:05:42.392Z,88.13
2019-03-23T14:08:13.820Z,89.97
2019-03-23T14:10:43.197Z,104.57
2019-03-23T14:13:12.510Z,89.73
2019-03-23T14:15:41.812Z,91.97
2019-03-23T14:18:11.126Z,71.43
2019-03-23T14:20:40.424Z,85.60
2019-03-23T14:23:09.743Z,75.50
2019-03-23T14:25:39.056Z,75.23
2019-03-23T14:28:08.377Z,74.23
2019-03-23T14:30:37.676Z,78.03
2019-03-23T14:33:07.954Z,78.87
2019-03-23T14:35:37.492Z,70.70
2019-03-23T14:38:06.800Z,72.13
2019-03-23T14:40:36.112Z,70.37
2019-03-23T14:43:05.468Z,66.17
2019-03-23T14:45:36.885Z,73.33
2019-03-23T14:48:05.783Z,67.63
2019-03-23T14:50:35.100Z,70.10
2019-03-23T14:53:04.412Z,68.83
2019-03-23T14:55:33.729Z,76.90
2019-03-23T14:58:03.032Z,71.10
2019-03-23T15:00:33.493Z,67.67
2019-03-23T15:03:02.801Z,73.70
2019-03-23T15:05:32.101Z,69.83
2019-03-23T15:08:01.409Z,74.37
2019-03-23T15:10:31.163Z,73.73
2019-03-23T15:13:01.140Z,76.17
2019-03-23T15:15:30.691Z,69.80
2019-03-23T15:18:00.566Z,56.83
2019-03-23T15:20:29.877Z,72.37
2019-03-23T15:22:59.188Z,67.73
2019-03-23T15:25:28.508Z,70.60
2019-03-23T15:27:57.814Z,66.53
2019-03-23T15:30:27.123Z,71.80
2019-03-23T15:32:56.433Z,70.07
2019-03-23T15:35:25.735Z,63.70
2019-03-23T15:37:55.065Z,65.10
2019-03-23T15:40:24.364Z,65.47
2019-03-23T15:42:53.671Z,71.97
2019-03-23T15:45:22.980Z,67.87
2019-03-23T15:47:52.396Z,65.97
2019-03-23T15:50:22.676Z,68.20
2019-03-23T15:52:52.042Z,66.20
2019-03-23T15:55:22.324Z,71.37
2019-03-23T15:57:51.642Z,67.17
2019-03-23T16:00:21.111Z,72.73
2019-03-23T16:02:50.504Z,71.93
2019-03-23T16:05:19.812Z,71.00
2019-03-23T16:07:49.125Z,71.47
2019-03-23T16:10:18.423Z,65.13
2019-03-23T16:12:48.248Z,73.87
2019-03-23T16:15:17.620Z,73.60
2019-03-23T16:17:46.926Z,68.43
2019-03-23T16:20:18.091Z,66.50
2019-03-23T16:22:47.400Z,67.00
2019-03-23T16:25:16.713Z,66.83
2019-03-23T16:27:46.611Z,70.93
2019-03-23T16:30:18.996Z,72.37
2019-03-23T16:32:49.271Z,73.27
2019-03-23T16:35:18.627Z,75.80
2019-03-23T16:37:47.931Z,72.07
2019-03-23T16:40:17.244Z,71.00
2019-03-23T16:42:48.576Z,87.30
2019-03-23T16:45:17.884Z,84.63
2019-03-23T16:47:47.202Z,74.87
2019-03-23T16:50:16.502Z,75.37
2019-03-23T16:52:45.808Z,79.30
2019-03-23T16:55:15.112Z,82.53
2019-03-23T16:57:44.412Z,79.83
2019-03-23T17:00:15.757Z,83.33
2019-03-23T17:02:45.060Z,85.27
2019-03-23T17:05:14.576Z,81.17
2019-03-23T17:07:43.876Z,81.83
2019-03-23T17:10:13.251Z,94.17
2019-03-23T17:12:42.563Z,94.93
2019-03-23T17:15:13.753Z,87.00
2019-03-23T17:17:43.060Z,88.60
2019-03-23T17:20:12.523Z,83.23
2019-03-23T17:22:42.951Z,82.00
2019-03-23T17:25:12.323Z,76.93
2019-03-23T17:27:41.621Z,89.57
2019-03-23T17:30:11.459Z,84.03
2019-03-23T17:32:40.760Z,85.83
2019-03-23T17:35:10.143Z,81.23
2019-03-23T17:37:39.448Z,91.23
2019-03-23T17:40:09.691Z,88.50
2019-03-23T17:42:39.079Z,98.70
2019-03-23T17:45:08.612Z,88.57
2019-03-23T17:47:37.973Z,85.17
2019-03-23T17:50:07.444Z,91.73
2019-03-23T17:52:36.745Z,94.43
2019-03-23T17:55:06.892Z,85.63
2019-03-23T17:57:36.194Z,91.63
2019-03-23T18:00:10.216Z,87.07
2019-03-23T18:02:40.125Z,82.23
2019-03-23T18:05:12.090Z,87.50
2019-03-23T18:07:40.962Z,95.30
2019-03-23T18:10:11.023Z,104.37
2019-03-23T18:12:40.323Z,90.80
2019-03-23T18:15:10.765Z,80.57
2019-03-23T18:17:40.572Z,88.27
2019-03-23T18:20:10.311Z,85.57
2019-03-23T18:22:39.616Z,91.13
2019-03-23T18:25:09.468Z,97.60
2019-03-23T18:27:38.808Z,89.70
2019-03-23T18:30:27.868Z,93.70
2019-03-23T18:32:57.219Z,80.33
2019-03-23T18:35:26.696Z,92.87
2019-03-23T18:37:56.008Z,102.57
2019-03-23T18:40:25.848Z,108.77
2019-03-23T18:42:55.151Z,93.50
2019-03-23T18:45:24.456Z,88.03
2019-03-23T18:47:53.756Z,89.13
2019-03-23T18:50:23.112Z,85.67
2019-03-23T18:52:52.421Z,88.97
2019-03-23T18:55:21.715Z,92.03
2019-03-23T18:57:52.856Z,96.93
2019-03-23T19:00:33.965Z,94.13
2019-03-23T19:03:03.603Z,94.40
2019-03-23T19:05:34.146Z,101.70
2019-03-23T19:08:03.872Z,100.27
2019-03-23T19:10:33.335Z,92.53
2019-03-23T19:13:02.640Z,96.47
2019-03-23T19:15:32.268Z,94.77
2019-03-23T19:18:02.987Z,98.80
2019-03-23T19:20:32.330Z,93.17
2019-03-23T19:23:01.632Z,89.87
2019-03-23T19:25:30.928Z,92.63
2019-03-23T19:28:00.335Z,86.97
2019-03-23T19:30:29.636Z,85.07
2019-03-23T19:32:58.940Z,94.03
2019-03-23T19:35:28.245Z,95.87
2019-03-23T19:37:57.554Z,96.47
2019-03-23T19:40:26.907Z,91.07
2019-03-23T19:42:59.481Z,87.93
2019-03-23T19:45:28.209Z,93.60
2019-03-23T19:47:57.512Z,99.90
2019-03-23T19:50:26.818Z,96.87
2019-03-23T19:52:56.118Z,98.53
2019-03-23T19:55:25.422Z,95.80
2019-03-23T19:57:54.842Z,100.97
2019-03-23T20:00:24.276Z,98.30
2019-03-23T20:02:53.576Z,97.13
2019-03-23T20:05:22.885Z,98.60
2019-03-23T20:07:52.185Z,101.83
2019-03-23T20:10:22.020Z,97.00
2019-03-23T20:12:51.322Z,101.07
2019-03-23T20:15:20.631Z,103.13
2019-03-23T20:17:49.940Z,108.27
2019-03-23T20:20:20.157Z,100.00
2019-03-23T20:22:49.467Z,104.37
2019-03-23T20:25:18.839Z,109.03
2019-03-23T20:27:49.308Z,112.70
2019-03-23T20:30:18.780Z,107.73
2019-03-23T20:32:48.180Z,115.97
2019-03-23T20:35:17.565Z,108.07
2019-03-23T20:37:46.867Z,107.67
2019-03-23T20:40:16.357Z,106.57
2019-03-23T20:42:45.664Z,107.60
2019-03-23T20:45:18.624Z,106.03
2019-03-23T20:47:47.927Z,104.53
2019-03-23T20:50:17.240Z,115.10
2019-03-23T20:52:46.813Z,112.70
2019-03-23T20:55:24.020Z,105.37
2019-03-23T20:57:54.855Z,109.47
2019-03-23T21:00:24.211Z,113.63
2019-03-23T21:02:54.397Z,112.50
2019-03-23T21:05:33.099Z,118.27
2019-03-23T21:07:54.759Z,111.73
2019-03-23T21:10:24.068Z,121.40
2019-03-23T21:12:53.381Z,109.80
2019-03-23T21:15:22.684Z,115.00
2019-03-23T21:17:52.056Z,108.70
2019-03-23T21:20:22.907Z,110.43
2019-03-23T21:22:52.221Z,113.47
2019-03-23T21:25:21.523Z,115.57
2019-03-23T21:27:50.828Z,119.43
2019-03-23T21:30:20.144Z,119.97
2019-03-23T21:32:49.454Z,121.33
2019-03-23T21:35:18.756Z,118.57
2019-03-23T21:37:48.448Z,118.60
2019-03-23T21:40:17.751Z,121.80
2019-03-23T21:42:47.052Z,120.73
2019-03-23T21:45:16.528Z,119.50
2019-03-23T21:47:45.836Z,113.73
2019-03-23T21:50:15.144Z,116.87
2019-03-23T21:52:44.447Z,115.73
2019-03-23T21:55:15.113Z,128.80
2019-03-23T21:57:45.383Z,120.20
2019-03-23T22:00:17.948Z,112.80
2019-03-23T22:02:47.252Z,107.93
2019-03-23T22:05:16.557Z,111.17
2019-03-23T22:07:45.871Z,103.07
2019-03-23T22:10:15.547Z,113.03
2019-03-23T22:12:45.037Z,102.10
2019-03-23T22:15:14.412Z,105.67
2019-03-23T22:17:43.730Z,104.37
2019-03-23T22:20:13.359Z,101.10
2019-03-23T22:22:43.692Z,99.43
2019-03-23T22:25:13.163Z,107.67
2019-03-23T22:27:42.467Z,105.63
2019-03-23T22:30:13.877Z,110.63
2019-03-23T22:32:43.181Z,95.83
2019-03-23T22:35:12.551Z,90.47
2019-03-23T22:37:42.595Z,92.87
2019-03-23T22:40:12.333Z,96.53
2019-03-23T22:42:41.657Z,98.87
2019-03-23T22:45:11.500Z,94.80
2019-03-23T22:47:40.803Z,94.03
2019-03-23T22:50:10.652Z,86.53
2019-03-23T22:52:40.032Z,99.23
2019-03-23T22:55:09.784Z,91.80
2019-03-23T22:57:39.090Z,82.20
2019-03-23T23:00:11.960Z,99.77
2019-03-23T23:02:42.939Z,85.67
2019-03-23T23:05:12.236Z,82.37
2019-03-23T23:07:42.369Z,82.57
2019-03-23T23:10:12.221Z,80.73
2019-03-23T23:12:41.544Z,76.77
2019-03-23T23:15:11.184Z,84.67
2019-03-23T23:17:40.497Z,77.50
2019-03-23T23:20:10.341Z,70.53
2019-03-23T23:22:39.634Z,80.27
2019-03-23T23:25:11.744Z,78.10
2019-03-23T23:27:41.046Z,72.80
2019-03-23T23:30:12.916Z,75.57
2019-03-23T23:32:42.216Z,69.00
2019-03-23T23:35:12.059Z,62.30
2019-03-23T23:37:41.360Z,62.57
2019-03-23T23:40:10.932Z,68.57
2019-03-23T23:42:41.889Z,63.87
2019-03-23T23:45:15.752Z,59.13
2019-03-23T23:47:42.949Z,56.67
2019-03-23T23:50:12.793Z,52.10
2019-03-23T23:52:42.092Z,50.70
2019-03-23T23:55:11.570Z,49.10
2019-03-23T23:57:40.870Z,45.93
